sensor_id;sensor_type;location;lat;lon;timestamp;temperature;humidity
23717;DHT22;22094;52.130;5.598;2022-07-23T00:00:54;14.10;99.90
23717;DHT22;22094;52.130;5.598;2022-07-23T00:03:20;14.10;99.90
23717;DHT22;22094;52.130;5.598;2022-07-23T00:05:45;14.10;99.90
23717;DHT22;22094;52.130;5.598;2022-07-23T00:08:11;14.00;99.90
23717;DHT22;22094;52.130;5.598;2022-07-23T00:10:37;14.00;99.90
23717;DHT22;22094;52.130;5.598;2022-07-23T00:13:02;13.90;99.90
23717;DHT22;22094;52.130;5.598;2022-07-23T00:15:28;13.90;99.90
23717;DHT22;22094;52.130;5.598;2022-07-23T00:17:53;13.90;99.90
23717;DHT22;22094;52.130;5.598;2022-07-23T00:20:19;13.90;99.90
23717;DHT22;22094;52.130;5.598;2022-07-23T00:22:52;13.90;99.90
23717;DHT22;22094;52.130;5.598;2022-07-23T00:25:19;14.00;99.90
23717;DHT22;22094;52.130;5.598;2022-07-23T00:27:45;13.90;99.90
23717;DHT22;22094;52.130;5.598;2022-07-23T00:30:11;13.80;99.90
23717;DHT22;22094;52.130;5.598;2022-07-23T00:35:26;13.80;99.90
23717;DHT22;22094;52.130;5.598;2022-07-23T00:37:53;13.80;99.90
23717;DHT22;22094;52.130;5.598;2022-07-23T00:40:19;13.80;99.90
23717;DHT22;22094;52.130;5.598;2022-07-23T00:42:44;13.70;99.90
23717;DHT22;22094;52.130;5.598;2022-07-23T00:45:10;13.70;99.90
23717;DHT22;22094;52.130;5.598;2022-07-23T00:47:35;13.70;99.90
23717;DHT22;22094;52.130;5.598;2022-07-23T00:50:02;13.60;99.90
23717;DHT22;22094;52.130;5.598;2022-07-23T00:52:28;13.60;99.90
23717;DHT22;22094;52.130;5.598;2022-07-23T00:54:54;13.60;99.90
23717;DHT22;22094;52.130;5.598;2022-07-23T00:57:20;13.60;99.90
23717;DHT22;22094;52.130;5.598;2022-07-23T00:59:46;13.50;99.90
23717;DHT22;22094;52.130;5.598;2022-07-23T01:02:11;13.50;99.90
23717;DHT22;22094;52.130;5.598;2022-07-23T01:04:37;13.50;99.90
23717;DHT22;22094;52.130;5.598;2022-07-23T01:07:02;13.40;99.90
23717;DHT22;22094;52.130;5.598;2022-07-23T01:09:28;13.40;99.90
23717;DHT22;22094;52.130;5.598;2022-07-23T01:11:55;13.40;99.90
23717;DHT22;22094;52.130;5.598;2022-07-23T01:14:21;13.50;99.90
23717;DHT22;22094;52.130;5.598;2022-07-23T01:16:48;13.40;99.90
23717;DHT22;22094;52.130;5.598;2022-07-23T01:19:15;13.40;99.90
23717;DHT22;22094;52.130;5.598;2022-07-23T01:21:44;13.30;99.90
23717;DHT22;22094;52.130;5.598;2022-07-23T01:24:11;13.30;99.90
23717;DHT22;22094;52.130;5.598;2022-07-23T01:26:38;13.30;99.90
23717;DHT22;22094;52.130;5.598;2022-07-23T01:29:04;13.30;99.90
23717;DHT22;22094;52.130;5.598;2022-07-23T01:31:30;13.20;99.90
23717;DHT22;22094;52.130;5.598;2022-07-23T01:33:56;13.10;99.90
23717;DHT22;22094;52.130;5.598;2022-07-23T01:36:21;13.10;99.90
23717;DHT22;22094;52.130;5.598;2022-07-23T01:38:47;13.10;99.90
23717;DHT22;22094;52.130;5.598;2022-07-23T01:41:13;13.10;99.90
23717;DHT22;22094;52.130;5.598;2022-07-23T01:43:39;13.00;99.90
23717;DHT22;22094;52.130;5.598;2022-07-23T01:46:04;13.10;99.90
23717;DHT22;22094;52.130;5.598;2022-07-23T01:48:30;13.10;99.90
23717;DHT22;22094;52.130;5.598;2022-07-23T01:50:55;13.00;99.90
23717;DHT22;22094;52.130;5.598;2022-07-23T01:53:21;13.00;99.90
23717;DHT22;22094;52.130;5.598;2022-07-23T01:55:46;12.90;99.90
23717;DHT22;22094;52.130;5.598;2022-07-23T01:58:12;12.90;99.90
23717;DHT22;22094;52.130;5.598;2022-07-23T02:00:37;12.90;99.90
23717;DHT22;22094;52.130;5.598;2022-07-23T02:03:03;12.80;99.90
23717;DHT22;22094;52.130;5.598;2022-07-23T02:05:29;12.80;99.90
23717;DHT22;22094;52.130;5.598;2022-07-23T02:07:56;12.80;99.90
23717;DHT22;22094;52.130;5.598;2022-07-23T02:10:21;12.80;99.90
23717;DHT22;22094;52.130;5.598;2022-07-23T02:12:47;12.80;99.90
23717;DHT22;22094;52.130;5.598;2022-07-23T02:15:13;12.80;99.90
23717;DHT22;22094;52.130;5.598;2022-07-23T02:17:39;12.80;99.90
23717;DHT22;22094;52.130;5.598;2022-07-23T02:20:07;12.70;99.90
23717;DHT22;22094;52.130;5.598;2022-07-23T02:22:33;12.60;99.90
23717;DHT22;22094;52.130;5.598;2022-07-23T02:24:59;12.60;99.90
23717;DHT22;22094;52.130;5.598;2022-07-23T02:27:24;12.60;99.90
23717;DHT22;22094;52.130;5.598;2022-07-23T02:29:50;12.60;99.90
23717;DHT22;22094;52.130;5.598;2022-07-23T02:32:16;12.60;99.90
23717;DHT22;22094;52.130;5.598;2022-07-23T02:34:42;12.50;99.90
23717;DHT22;22094;52.130;5.598;2022-07-23T02:37:07;12.50;99.90
23717;DHT22;22094;52.130;5.598;2022-07-23T02:39:36;12.50;99.90
23717;DHT22;22094;52.130;5.598;2022-07-23T02:42:02;12.40;99.90
23717;DHT22;22094;52.130;5.598;2022-07-23T02:44:27;12.40;99.90
23717;DHT22;22094;52.130;5.598;2022-07-23T02:46:53;12.30;99.90
23717;DHT22;22094;52.130;5.598;2022-07-23T02:49:19;12.30;99.90
23717;DHT22;22094;52.130;5.598;2022-07-23T02:51:44;12.30;99.90
23717;DHT22;22094;52.130;5.598;2022-07-23T02:54:10;12.30;99.90
23717;DHT22;22094;52.130;5.598;2022-07-23T02:56:35;12.30;99.90
23717;DHT22;22094;52.130;5.598;2022-07-23T02:59:01;12.20;99.90
23717;DHT22;22094;52.130;5.598;2022-07-23T03:01:26;12.20;99.90
23717;DHT22;22094;52.130;5.598;2022-07-23T03:03:52;12.20;99.90
23717;DHT22;22094;52.130;5.598;2022-07-23T03:06:17;12.10;99.90
23717;DHT22;22094;52.130;5.598;2022-07-23T03:08:43;12.10;99.90
23717;DHT22;22094;52.130;5.598;2022-07-23T03:11:08;12.10;99.90
23717;DHT22;22094;52.130;5.598;2022-07-23T03:13:37;12.10;99.90
23717;DHT22;22094;52.130;5.598;2022-07-23T03:16:03;12.10;99.90
23717;DHT22;22094;52.130;5.598;2022-07-23T03:18:28;12.10;99.90
23717;DHT22;22094;52.130;5.598;2022-07-23T03:20:54;12.10;99.90
23717;DHT22;22094;52.130;5.598;2022-07-23T03:23:20;12.10;99.90
23717;DHT22;22094;52.130;5.598;2022-07-23T03:25:45;12.10;99.90
23717;DHT22;22094;52.130;5.598;2022-07-23T03:28:14;12.30;99.90
23717;DHT22;22094;52.130;5.598;2022-07-23T03:30:41;12.00;99.90
23717;DHT22;22094;52.130;5.598;2022-07-23T03:33:06;12.00;99.90
23717;DHT22;22094;52.130;5.598;2022-07-23T03:35:32;11.90;99.90
23717;DHT22;22094;52.130;5.598;2022-07-23T03:37:58;11.90;99.90
23717;DHT22;22094;52.130;5.598;2022-07-23T03:40:23;11.90;99.90
23717;DHT22;22094;52.130;5.598;2022-07-23T03:42:49;12.00;99.90
23717;DHT22;22094;52.130;5.598;2022-07-23T03:45:14;12.10;99.90
23717;DHT22;22094;52.130;5.598;2022-07-23T03:47:40;12.00;99.90
23717;DHT22;22094;52.130;5.598;2022-07-23T03:50:06;12.00;99.90
23717;DHT22;22094;52.130;5.598;2022-07-23T03:52:31;12.00;99.90
23717;DHT22;22094;52.130;5.598;2022-07-23T03:54:57;12.00;99.90
23717;DHT22;22094;52.130;5.598;2022-07-23T03:57:23;11.90;99.90
23717;DHT22;22094;52.130;5.598;2022-07-23T03:59:48;11.90;99.90
23717;DHT22;22094;52.130;5.598;2022-07-23T04:02:14;11.90;99.90
23717;DHT22;22094;52.130;5.598;2022-07-23T04:04:40;11.90;99.90
23717;DHT22;22094;52.130;5.598;2022-07-23T04:07:05;12.00;99.90
23717;DHT22;22094;52.130;5.598;2022-07-23T04:09:32;12.00;99.90
23717;DHT22;22094;52.130;5.598;2022-07-23T04:11:58;11.90;99.90
23717;DHT22;22094;52.130;5.598;2022-07-23T04:14:23;11.90;99.90
23717;DHT22;22094;52.130;5.598;2022-07-23T04:16:49;12.00;99.90
23717;DHT22;22094;52.130;5.598;2022-07-23T04:19:14;12.10;99.90
23717;DHT22;22094;52.130;5.598;2022-07-23T04:21:40;12.00;99.90
23717;DHT22;22094;52.130;5.598;2022-07-23T04:24:07;12.20;99.90
23717;DHT22;22094;52.130;5.598;2022-07-23T04:26:32;12.00;99.90
23717;DHT22;22094;52.130;5.598;2022-07-23T04:28:58;12.40;99.90
23717;DHT22;22094;52.130;5.598;2022-07-23T04:31:23;12.30;99.90
23717;DHT22;22094;52.130;5.598;2022-07-23T04:33:49;12.40;99.90
23717;DHT22;22094;52.130;5.598;2022-07-23T04:36:15;12.30;99.90
23717;DHT22;22094;52.130;5.598;2022-07-23T04:38:40;12.50;99.90
23717;DHT22;22094;52.130;5.598;2022-07-23T04:41:06;10.90;99.90
23717;DHT22;22094;52.130;5.598;2022-07-23T04:43:31;12.70;99.90
23717;DHT22;22094;52.130;5.598;2022-07-23T04:45:57;12.90;99.90
23717;DHT22;22094;52.130;5.598;2022-07-23T04:48:22;13.00;99.90
23717;DHT22;22094;52.130;5.598;2022-07-23T04:50:48;11.60;99.90
23717;DHT22;22094;52.130;5.598;2022-07-23T04:53:13;13.40;99.90
23717;DHT22;22094;52.130;5.598;2022-07-23T04:55:39;12.70;99.90
23717;DHT22;22094;52.130;5.598;2022-07-23T04:58:04;12.80;99.90
23717;DHT22;22094;52.130;5.598;2022-07-23T05:00:30;13.60;99.90
23717;DHT22;22094;52.130;5.598;2022-07-23T05:02:55;13.80;99.90
23717;DHT22;22094;52.130;5.598;2022-07-23T05:05:21;14.10;99.90
23717;DHT22;22094;52.130;5.598;2022-07-23T05:07:47;14.40;99.90
23717;DHT22;22094;52.130;5.598;2022-07-23T05:10:12;17.00;99.90
23717;DHT22;22094;52.130;5.598;2022-07-23T05:12:38;14.70;99.90
23717;DHT22;22094;52.130;5.598;2022-07-23T05:17:29;13.80;99.90
23717;DHT22;22094;52.130;5.598;2022-07-23T05:19:55;15.90;99.90
23717;DHT22;22094;52.130;5.598;2022-07-23T05:22:20;15.50;99.90
23717;DHT22;22094;52.130;5.598;2022-07-23T05:24:46;14.80;99.90
23717;DHT22;22094;52.130;5.598;2022-07-23T05:27:11;16.10;99.90
23717;DHT22;22094;52.130;5.598;2022-07-23T05:32:03;16.10;99.90
23717;DHT22;22094;52.130;5.598;2022-07-23T05:34:29;15.50;99.90
23717;DHT22;22094;52.130;5.598;2022-07-23T05:39:20;17.60;99.90
23717;DHT22;22094;52.130;5.598;2022-07-23T05:44:12;16.30;99.90
23717;DHT22;22094;52.130;5.598;2022-07-23T06:06:06;18.30;99.90
23717;DHT22;22094;52.130;5.598;2022-07-23T07:06:59;20.00;99.90
23717;DHT22;22094;52.130;5.598;2022-07-23T08:05:28;21.10;99.90
23717;DHT22;22094;52.130;5.598;2022-07-23T08:12:49;21.10;99.90
23717;DHT22;22094;52.130;5.598;2022-07-23T08:15:17;20.00;99.90
23717;DHT22;22094;52.130;5.598;2022-07-23T08:17:44;20.70;99.90
23717;DHT22;22094;52.130;5.598;2022-07-23T08:20:11;21.20;99.90
23717;DHT22;22094;52.130;5.598;2022-07-23T08:25:31;22.50;99.90
23717;DHT22;22094;52.130;5.598;2022-07-23T08:27:58;19.70;99.90
23717;DHT22;22094;52.130;5.598;2022-07-23T08:45:08;21.00;99.90
23717;DHT22;22094;52.130;5.598;2022-07-23T08:47:36;21.30;99.90
23717;DHT22;22094;52.130;5.598;2022-07-23T08:54:57;22.50;99.90
23717;DHT22;22094;52.130;5.598;2022-07-23T09:12:09;22.90;99.90
23717;DHT22;22094;52.130;5.598;2022-07-23T09:17:13;23.50;99.90
23717;DHT22;22094;52.130;5.598;2022-07-23T09:22:28;23.00;99.90
23717;DHT22;22094;52.130;5.598;2022-07-23T09:25:15;23.20;99.90
23717;DHT22;22094;52.130;5.598;2022-07-23T09:33:12;23.50;99.90
23717;DHT22;22094;52.130;5.598;2022-07-23T09:35:50;24.00;99.90
23717;DHT22;22094;52.130;5.598;2022-07-23T09:38:17;23.40;99.90
23717;DHT22;22094;52.130;5.598;2022-07-23T09:40:43;24.40;99.90
23717;DHT22;22094;52.130;5.598;2022-07-23T09:48:15;24.70;99.90
23717;DHT22;22094;52.130;5.598;2022-07-23T09:50:44;24.30;99.90
23717;DHT22;22094;52.130;5.598;2022-07-23T09:53:24;23.60;99.90
23717;DHT22;22094;52.130;5.598;2022-07-23T09:55:51;23.60;99.90
23717;DHT22;22094;52.130;5.598;2022-07-23T09:58:20;23.50;99.90
23717;DHT22;22094;52.130;5.598;2022-07-23T10:08:11;25.90;99.90
23717;DHT22;22094;52.130;5.598;2022-07-23T10:10:39;24.60;99.90
23717;DHT22;22094;52.130;5.598;2022-07-23T10:20:38;23.80;99.90
23717;DHT22;22094;52.130;5.598;2022-07-23T10:23:22;24.30;99.90
23717;DHT22;22094;52.130;5.598;2022-07-23T10:26:06;24.30;99.90
23717;DHT22;22094;52.130;5.598;2022-07-23T10:42:12;24.30;99.90
23717;DHT22;22094;52.130;5.598;2022-07-23T10:57:11;24.70;99.90
23717;DHT22;22094;52.130;5.598;2022-07-23T11:22:46;27.20;99.90
23717;DHT22;22094;52.130;5.598;2022-07-23T11:30:06;26.70;99.90
23717;DHT22;22094;52.130;5.598;2022-07-23T11:32:34;29.50;99.90
23717;DHT22;22094;52.130;5.598;2022-07-23T11:35:03;26.00;99.90
23717;DHT22;22094;52.130;5.598;2022-07-23T11:37:44;26.30;99.90
23717;DHT22;22094;52.130;5.598;2022-07-23T11:40:11;25.20;99.90
23717;DHT22;22094;52.130;5.598;2022-07-23T11:45:26;24.70;99.90
23717;DHT22;22094;52.130;5.598;2022-07-23T11:50:23;27.20;99.90
23717;DHT22;22094;52.130;5.598;2022-07-23T11:55:16;25.20;99.90
23717;DHT22;22094;52.130;5.598;2022-07-23T12:00:17;26.70;99.90
23717;DHT22;22094;52.130;5.598;2022-07-23T12:02:53;27.10;99.90
23717;DHT22;22094;52.130;5.598;2022-07-23T12:07:49;27.20;99.90
23717;DHT22;22094;52.130;5.598;2022-07-23T12:10:37;25.60;99.90
23717;DHT22;22094;52.130;5.598;2022-07-23T12:20:26;26.00;99.90
23717;DHT22;22094;52.130;5.598;2022-07-23T12:22:56;25.10;99.90
23717;DHT22;22094;52.130;5.598;2022-07-23T12:28:26;26.70;99.90
23717;DHT22;22094;52.130;5.598;2022-07-23T12:30:54;26.70;99.90
23717;DHT22;22094;52.130;5.598;2022-07-23T12:35:59;27.30;99.90
23717;DHT22;22094;52.130;5.598;2022-07-23T12:38:27;25.30;99.90
23717;DHT22;22094;52.130;5.598;2022-07-23T12:40:55;27.30;99.90
23717;DHT22;22094;52.130;5.598;2022-07-23T12:50:55;27.30;99.90
23717;DHT22;22094;52.130;5.598;2022-07-23T12:53:24;26.90;99.90
23717;DHT22;22094;52.130;5.598;2022-07-23T12:58:19;27.20;99.90
23717;DHT22;22094;52.130;5.598;2022-07-23T13:13:11;29.30;99.90
23717;DHT22;22094;52.130;5.598;2022-07-23T13:52:11;32.40;96.70
23717;DHT22;22094;52.130;5.598;2022-07-23T14:04:21;33.60;92.50
23717;DHT22;22094;52.130;5.598;2022-07-23T15:02:45;33.50;88.50
23717;DHT22;22094;52.130;5.598;2022-07-23T16:40:10;36.40;76.00
23717;DHT22;22094;52.130;5.598;2022-07-23T16:42:36;37.10;74.60
23717;DHT22;22094;52.130;5.598;2022-07-23T17:50:52;32.90;76.40
23717;DHT22;22094;52.130;5.598;2022-07-23T18:03:03;31.80;78.20
23717;DHT22;22094;52.130;5.598;2022-07-23T18:15:14;28.00;85.50
23717;DHT22;22094;52.130;5.598;2022-07-23T18:20:08;28.80;84.20
23717;DHT22;22094;52.130;5.598;2022-07-23T18:44:34;28.20;85.90
23717;DHT22;22094;52.130;5.598;2022-07-23T18:47:00;28.10;86.60
23717;DHT22;22094;52.130;5.598;2022-07-23T18:49:25;27.90;87.20
23717;DHT22;22094;52.130;5.598;2022-07-23T18:51:51;27.60;87.50
23717;DHT22;22094;52.130;5.598;2022-07-23T18:54:19;27.20;88.20
23717;DHT22;22094;52.130;5.598;2022-07-23T18:59:11;26.90;89.30
23717;DHT22;22094;52.130;5.598;2022-07-23T19:01:36;26.60;90.10
23717;DHT22;22094;52.130;5.598;2022-07-23T19:04:03;26.30;90.80
23717;DHT22;22094;52.130;5.598;2022-07-23T19:06:29;26.00;90.80
23717;DHT22;22094;52.130;5.598;2022-07-23T19:08:54;25.70;92.20
23717;DHT22;22094;52.130;5.598;2022-07-23T19:11:20;25.40;92.80
23717;DHT22;22094;52.130;5.598;2022-07-23T19:13:46;25.20;93.60
23717;DHT22;22094;52.130;5.598;2022-07-23T19:16:11;24.90;93.90
23717;DHT22;22094;52.130;5.598;2022-07-23T19:18:37;24.80;94.40
23717;DHT22;22094;52.130;5.598;2022-07-23T19:21:03;24.50;95.40
23717;DHT22;22094;52.130;5.598;2022-07-23T19:23:30;24.40;96.00
23717;DHT22;22094;52.130;5.598;2022-07-23T19:25:55;24.20;96.30
23717;DHT22;22094;52.130;5.598;2022-07-23T19:28:21;24.00;97.50
23717;DHT22;22094;52.130;5.598;2022-07-23T19:30:47;23.80;97.30
23717;DHT22;22094;52.130;5.598;2022-07-23T19:33:12;23.60;97.80
23717;DHT22;22094;52.130;5.598;2022-07-23T19:35:38;23.50;97.70
23717;DHT22;22094;52.130;5.598;2022-07-23T19:38:04;23.30;98.60
23717;DHT22;22094;52.130;5.598;2022-07-23T19:40:29;23.20;99.30
23717;DHT22;22094;52.130;5.598;2022-07-23T19:42:55;23.00;99.90
23717;DHT22;22094;52.130;5.598;2022-07-23T19:45:20;22.80;99.90
23717;DHT22;22094;52.130;5.598;2022-07-23T19:47:46;22.60;99.90
23717;DHT22;22094;52.130;5.598;2022-07-23T19:50:13;22.50;99.90
23717;DHT22;22094;52.130;5.598;2022-07-23T19:52:39;22.40;99.90
23717;DHT22;22094;52.130;5.598;2022-07-23T19:55:05;22.30;99.90
23717;DHT22;22094;52.130;5.598;2022-07-23T19:57:31;22.20;99.90
23717;DHT22;22094;52.130;5.598;2022-07-23T19:59:57;22.10;99.90
23717;DHT22;22094;52.130;5.598;2022-07-23T20:02:22;22.00;99.90
23717;DHT22;22094;52.130;5.598;2022-07-23T20:04:48;22.00;99.90
23717;DHT22;22094;52.130;5.598;2022-07-23T20:07:14;21.80;99.90
23717;DHT22;22094;52.130;5.598;2022-07-23T20:09:40;21.70;99.90
23717;DHT22;22094;52.130;5.598;2022-07-23T20:12:07;21.70;99.90
23717;DHT22;22094;52.130;5.598;2022-07-23T20:14:33;21.60;99.90
23717;DHT22;22094;52.130;5.598;2022-07-23T20:16:58;21.60;99.90
23717;DHT22;22094;52.130;5.598;2022-07-23T20:19:24;21.50;99.90
23717;DHT22;22094;52.130;5.598;2022-07-23T20:21:49;21.40;99.90
23717;DHT22;22094;52.130;5.598;2022-07-23T20:24:16;21.30;99.90
23717;DHT22;22094;52.130;5.598;2022-07-23T20:26:47;21.30;99.90
23717;DHT22;22094;52.130;5.598;2022-07-23T20:29:14;21.20;99.90
23717;DHT22;22094;52.130;5.598;2022-07-23T20:31:40;21.10;99.90
23717;DHT22;22094;52.130;5.598;2022-07-23T20:34:06;21.00;99.90
23717;DHT22;22094;52.130;5.598;2022-07-23T20:36:33;21.00;99.90
23717;DHT22;22094;52.130;5.598;2022-07-23T20:38:59;21.00;99.90
23717;DHT22;22094;52.130;5.598;2022-07-23T20:41:24;20.90;99.90
23717;DHT22;22094;52.130;5.598;2022-07-23T20:43:50;20.90;99.90
23717;DHT22;22094;52.130;5.598;2022-07-23T20:46:15;20.80;99.90
23717;DHT22;22094;52.130;5.598;2022-07-23T20:48:43;20.70;99.90
23717;DHT22;22094;52.130;5.598;2022-07-23T20:51:08;20.60;99.90
23717;DHT22;22094;52.130;5.598;2022-07-23T20:53:34;20.60;99.90
23717;DHT22;22094;52.130;5.598;2022-07-23T20:55:59;20.60;99.90
23717;DHT22;22094;52.130;5.598;2022-07-23T20:58:25;20.60;99.90
23717;DHT22;22094;52.130;5.598;2022-07-23T21:00:51;20.50;99.90
23717;DHT22;22094;52.130;5.598;2022-07-23T21:03:17;20.30;99.90
23717;DHT22;22094;52.130;5.598;2022-07-23T21:05:43;20.40;99.90
23717;DHT22;22094;52.130;5.598;2022-07-23T21:08:09;20.40;99.90
23717;DHT22;22094;52.130;5.598;2022-07-23T21:10:35;20.30;99.90
23717;DHT22;22094;52.130;5.598;2022-07-23T21:13:00;20.30;99.90
23717;DHT22;22094;52.130;5.598;2022-07-23T21:15:26;20.20;99.90
23717;DHT22;22094;52.130;5.598;2022-07-23T21:17:52;20.10;99.90
23717;DHT22;22094;52.130;5.598;2022-07-23T21:20:17;20.10;99.90
23717;DHT22;22094;52.130;5.598;2022-07-23T21:22:43;20.00;99.90
23717;DHT22;22094;52.130;5.598;2022-07-23T21:25:10;20.00;99.90
23717;DHT22;22094;52.130;5.598;2022-07-23T21:27:36;19.90;99.90
23717;DHT22;22094;52.130;5.598;2022-07-23T21:30:02;19.90;99.90
23717;DHT22;22094;52.130;5.598;2022-07-23T21:32:28;19.80;99.90
23717;DHT22;22094;52.130;5.598;2022-07-23T21:34:53;19.70;99.90
23717;DHT22;22094;52.130;5.598;2022-07-23T21:37:19;19.70;99.90
23717;DHT22;22094;52.130;5.598;2022-07-23T21:39:45;19.60;99.90
23717;DHT22;22094;52.130;5.598;2022-07-23T21:42:10;19.60;99.90
23717;DHT22;22094;52.130;5.598;2022-07-23T21:44:36;19.50;99.90
23717;DHT22;22094;52.130;5.598;2022-07-23T21:47:01;19.50;99.90
23717;DHT22;22094;52.130;5.598;2022-07-23T21:49:27;19.40;99.90
23717;DHT22;22094;52.130;5.598;2022-07-23T21:51:53;19.40;99.90
23717;DHT22;22094;52.130;5.598;2022-07-23T21:54:19;19.30;99.90
23717;DHT22;22094;52.130;5.598;2022-07-23T21:56:45;19.30;99.90
23717;DHT22;22094;52.130;5.598;2022-07-23T21:59:10;19.20;99.90
23717;DHT22;22094;52.130;5.598;2022-07-23T22:01:37;19.10;99.90
23717;DHT22;22094;52.130;5.598;2022-07-23T22:04:03;19.10;99.90
23717;DHT22;22094;52.130;5.598;2022-07-23T22:06:30;19.00;99.90
23717;DHT22;22094;52.130;5.598;2022-07-23T22:08:57;19.00;99.90
23717;DHT22;22094;52.130;5.598;2022-07-23T22:11:22;18.90;99.90
23717;DHT22;22094;52.130;5.598;2022-07-23T22:13:48;18.80;99.90
23717;DHT22;22094;52.130;5.598;2022-07-23T22:16:14;18.80;99.90
23717;DHT22;22094;52.130;5.598;2022-07-23T22:18:39;18.70;99.90
23717;DHT22;22094;52.130;5.598;2022-07-23T22:21:05;18.70;99.90
23717;DHT22;22094;52.130;5.598;2022-07-23T22:23:31;18.60;99.90
23717;DHT22;22094;52.130;5.598;2022-07-23T22:25:56;18.60;99.90
23717;DHT22;22094;52.130;5.598;2022-07-23T22:28:22;18.50;99.90
23717;DHT22;22094;52.130;5.598;2022-07-23T22:30:47;18.50;99.90
23717;DHT22;22094;52.130;5.598;2022-07-23T22:33:15;18.50;99.90
23717;DHT22;22094;52.130;5.598;2022-07-23T22:35:40;18.40;99.90
23717;DHT22;22094;52.130;5.598;2022-07-23T22:38:06;18.40;99.90
23717;DHT22;22094;52.130;5.598;2022-07-23T22:40:32;18.40;99.90
23717;DHT22;22094;52.130;5.598;2022-07-23T22:42:57;18.30;99.90
23717;DHT22;22094;52.130;5.598;2022-07-23T22:45:23;18.20;99.90
23717;DHT22;22094;52.130;5.598;2022-07-23T22:47:48;18.20;99.90
23717;DHT22;22094;52.130;5.598;2022-07-23T22:50:14;18.20;99.90
23717;DHT22;22094;52.130;5.598;2022-07-23T22:52:41;18.10;99.90
23717;DHT22;22094;52.130;5.598;2022-07-23T22:55:07;18.10;99.90
23717;DHT22;22094;52.130;5.598;2022-07-23T22:57:33;18.10;99.90
23717;DHT22;22094;52.130;5.598;2022-07-23T22:59:59;18.10;99.90
23717;DHT22;22094;52.130;5.598;2022-07-23T23:02:24;18.10;99.90
23717;DHT22;22094;52.130;5.598;2022-07-23T23:04:50;18.10;99.90
23717;DHT22;22094;52.130;5.598;2022-07-23T23:07:15;18.10;99.90
23717;DHT22;22094;52.130;5.598;2022-07-23T23:09:41;18.10;99.90
23717;DHT22;22094;52.130;5.598;2022-07-23T23:12:07;18.10;99.90
23717;DHT22;22094;52.130;5.598;2022-07-23T23:14:32;18.10;99.90
23717;DHT22;22094;52.130;5.598;2022-07-23T23:16:58;18.00;99.90
23717;DHT22;22094;52.130;5.598;2022-07-23T23:19:24;18.00;99.90
23717;DHT22;22094;52.130;5.598;2022-07-23T23:21:49;17.90;99.90
23717;DHT22;22094;52.130;5.598;2022-07-23T23:24:15;17.90;99.90
23717;DHT22;22094;52.130;5.598;2022-07-23T23:26:40;17.80;99.90
23717;DHT22;22094;52.130;5.598;2022-07-23T23:29:06;17.80;99.90
23717;DHT22;22094;52.130;5.598;2022-07-23T23:31:32;17.70;99.90
23717;DHT22;22094;52.130;5.598;2022-07-23T23:33:57;17.70;99.90
23717;DHT22;22094;52.130;5.598;2022-07-23T23:36:23;17.60;99.90
23717;DHT22;22094;52.130;5.598;2022-07-23T23:38:48;17.60;99.90
23717;DHT22;22094;52.130;5.598;2022-07-23T23:41:14;17.50;99.90
23717;DHT22;22094;52.130;5.598;2022-07-23T23:43:40;17.50;99.90
23717;DHT22;22094;52.130;5.598;2022-07-23T23:46:05;17.50;99.90
23717;DHT22;22094;52.130;5.598;2022-07-23T23:48:31;17.40;99.90
23717;DHT22;22094;52.130;5.598;2022-07-23T23:50:56;17.40;99.90
23717;DHT22;22094;52.130;5.598;2022-07-23T23:53:22;17.30;99.90
23717;DHT22;22094;52.130;5.598;2022-07-23T23:55:48;17.20;99.90
23717;DHT22;22094;52.130;5.598;2022-07-23T23:58:13;17.20;99.90
